Latest Coastal Weather Observations for Bairnsdale

IDV60701

Issued at 4:11 am EST Thursday 23 May 2024 (issued every 10 minutes, with the page automatically refreshed every 10 minutes)

About coastal observations | Map of coastal stations | Coastal observations for VIC | Marine services | Other Formats
Station Details ID: 085279 Name: BAIRNSDALE AIRPORT Lat: -37.88 Lon: 147.57 Height: 49.4 m
Data from the previous 72 hours. | See also: Recent months at Bairnsdale
Date/Time
EST
Wind Sea
Height
m
Swell Vis
km
Cloud Weather Temp
°C
Press
MSL
hPa
Rain since
9am
mm
Dir  Spd
kts
Gust
kts
Height
m
Period
s
Dir
23/04:00am WNW 8 10 - - - - 10 Clear - 6.1 1026.9 0.2
23/03:30am WNW 9 10 - - - - 10 - - 5.8 1026.9 0.2
23/03:00am NW 8 9 - - - - 10 - - 5.8 1026.9 0.2
23/02:30am NW 8 9 - - - - 10 - - 6.0 1026.9 0.2
23/02:00am NW 8 10 - - - - 10 - - 6.3 1027.0 0.2
23/01:30am WNW 8 9 - - - - 10 - - 5.8 1026.9 0.2
23/01:00am NW 7 8 - - - - 10 - - 5.5 1026.7 0.2
23/12:30am NW 8 9 - - - - 10 - - 6.0 1026.8 0.2
23/12:00am NW 8 9 - - - - 10 - - 6.2 1027.0 0.2
 
Date/Time
EST
Wind Sea
Height
m
Swell Vis
km
Cloud Weather Temp
°C
Press
MSL
hPa
Rain since
9am
mm
Dir  Spd
kts
Gust
kts
Height
m
Period
s
Dir
22/11:30pm NW 8 9 - - - - 10 - - 6.1 1027.2 0.2
22/11:00pm NW 8 9 - - - - 10 - - 6.4 1027.3 0.2
22/10:30pm NW 7 9 - - - - 10 - - 6.4 1027.3 0.2
22/10:00pm NW 8 9 - - - - 10 - - 6.8 1027.5 0.2
22/09:30pm NW 7 9 - - - - 10 - - 6.9 1027.6 0.2
22/09:00pm NW 8 9 - - - - 10 - - 7.1 1027.5 0.2
22/08:30pm NW 7 8 - - - - 10 - - 6.6 1027.5 0.2
22/08:00pm NW 6 7 - - - - 10 - - 6.5 1027.4 0.2
22/07:30pm NW 6 6 - - - - 10 - - 7.3 1027.2 0.2
22/07:00pm NW 4 5 - - - - 10 - - 7.8 1027.0 0.2
22/06:30pm SW 3 4 - - - - 10 - - 8.1 1026.8 0.2
22/06:00pm SW 3 4 - - - - 10 - - 9.2 1026.6 0.2
22/05:30pm SSW 4 4 - - - - 10 - - 9.8 1026.3 0.2
22/05:00pm S 4 4 - - - - 10 - - 12.7 1026.0 0.2
22/04:30pm S 5 6 - - - - 10 - - 14.2 1025.9 0.2
22/04:00pm S 6 7 - - - - 10 - - 14.8 1025.8 0.2
22/03:30pm S 6 8 - - - - 10 - - 15.3 1025.7 0.2
22/03:00pm NE 2 3 - - - - 10 - Recent precip. 16.3 1025.6 0.2
22/02:30pm WSW 3 5 - - - - 10 - - 15.9 1025.7 0.2
22/02:00pm SSW 2 6 - - - - 10 - - 15.9 1025.8 0.0
22/01:30pm S 4 6 - - - - 10 - - 15.2 1026.1 0.0
22/01:00pm SSW 3 5 - - - - 10 - - 15.0 1026.2 0.0
22/12:30pm SW 3 4 - - - - 10 - - 15.3 1026.8 0.0
22/12:00pm W 3 5 - - - - 10 - - 14.6 1027.5 0.0
22/11:30am WNW 4 5 - - - - 10 - - 14.4 1028.0 0.0
22/11:00am W 5 7 - - - - 10 - - 12.7 1028.3 0.0
22/10:30am WNW 6 8 - - - - 10 - - 12.1 1028.4 0.0
22/10:00am WNW 7 9 - - - - 10 - - 10.9 1028.4 0.0
22/09:30am WNW 7 10 - - - - 10 - - 10.1 1028.7 0.0
22/09:00am NW 8 11 - - - - 10 - - 8.6 1028.7 0.0
22/08:30am NW 7 9 - - - - 10 - - 6.9 1028.7 0.0
22/08:00am NW 7 8 - - - - 10 - - 4.3 1028.5 0.0
22/07:30am NW 5 6 - - - - 10 - - 2.6 1028.4 0.0
22/07:00am NNW 5 6 - - - - 10 - - 2.6 1028.2 0.0
22/06:30am N 5 6 - - - - 10 - - 3.5 1028.0 0.0
22/06:00am NNW 3 4 - - - - 10 - - 3.2 1027.9 0.0
22/05:30am NW 4 5 - - - - 10 - - 4.2 1027.9 0.0
22/05:00am WNW 4 5 - - - - 10 - - 4.0 1027.9 0.0
22/04:30am NW 5 7 - - - - 10 - - 4.1 1027.6 0.0
22/04:00am NW 5 7 - - - - 10 - - 4.0 1027.6 0.0
22/03:30am WNW 7 7 - - - - 10 - - 5.3 1028.0 0.0
22/03:00am NW 5 6 - - - - 10 - - 4.9 1028.3 0.0
22/02:30am NW 8 10 - - - - 10 - - 5.7 1028.4 0.0
22/02:00am NW 9 10 - - - - 10 - - 5.8 1028.5 0.0
22/01:30am NW 9 11 - - - - 10 - - 6.1 1028.6 0.0
22/01:00am WNW 7 9 - - - - 10 - - 6.1 1028.8 0.0
22/12:30am NW 8 9 - - - - 10 - - 5.8 1028.8 0.0
22/12:00am NW 9 10 - - - - 10 - - 6.4 1028.7 0.0
 
Date/Time
EST
Wind Sea
Height
m
Swell Vis
km
Cloud Weather Temp
°C
Press
MSL
hPa
Rain since
9am
mm
Dir  Spd
kts
Gust
kts
Height
m
Period
s
Dir
21/11:30pm NW 7 9 - - - - 10 Partly cloudy - 6.8 1028.9 0.0
21/11:00pm WNW 9 10 - - - - 10 Partly cloudy - 7.3 1029.0 0.0
21/10:30pm NW 8 10 - - - - 10 Partly cloudy - 6.9 1029.0 0.0
21/10:00pm NW 8 9 - - - - 10 - - 6.6 1029.1 0.0
21/09:30pm NW 8 9 - - - - 10 - - 6.6 1029.2 0.0
21/09:00pm NW 6 7 - - - - 10 - - 6.4 1029.2 0.0
21/08:30pm NW 5 6 - - - - 10 - - 6.2 1029.2 0.0
21/08:00pm NW 5 6 - - - - 10 - - 6.2 1029.2 0.0
21/07:30pm CALM 0 0 - - - - 10 - - 7.2 1029.3 0.0
21/07:00pm CALM 0 0 - - - - 10 - - 7.7 1029.1 0.0
21/06:30pm CALM 0 0 - - - - 10 - - 8.4 1028.9 0.0
21/06:00pm CALM 0 1 - - - - 10 - - 10.2 1028.7 0.0
21/05:30pm SE 4 4 - - - - 10 - - 12.1 1028.5 0.0
21/05:00pm SSE 5 6 - - - - 10 Cloudy - 13.3 1028.5 0.0
21/04:30pm SSE 7 8 - - - - 10 Cloudy - 14.3 1028.6 0.0
21/04:00pm SSE 7 9 - - - - 10 Cloudy - 14.7 1028.6 0.0
21/03:30pm S 7 9 - - - - 10 Cloudy - 15.1 1028.6 0.0
21/03:00pm S 6 8 - - - - 10 Cloudy - 15.3 1028.5 0.0
21/02:30pm S 4 6 - - - - 10 Cloudy - 15.3 1028.4 0.0
21/02:00pm WNW 2 6 - - - - 10 Cloudy - 16.0 1028.4 0.0
21/01:30pm SW 6 9 - - - - 10 Partly cloudy - 15.4 1028.7 0.0
21/01:00pm SSW 5 8 - - - - 10 Partly cloudy - 14.8 1028.9 0.0
21/12:30pm SSW 4 7 - - - - 10 Partly cloudy - 15.0 1029.2 0.0
21/12:00pm SW 2 7 - - - - 10 Mostly cloudy - 15.1 1029.6 0.0
21/11:30am WNW 5 7 - - - - 10 Cloudy - 14.1 1029.9 0.0
21/11:00am WNW 5 7 - - - - 10 Cloudy - 13.6 1030.1 0.0
21/10:30am WSW 5 8 - - - - 10 Cloudy - 13.2 1030.3 0.0
21/10:00am W 8 10 - - - - 10 Cloudy - 12.7 1030.1 0.0
21/09:30am WNW 8 10 - - - - 10 Cloudy - 12.2 1030.0 0.0
21/09:00am NW 5 8 - - - - 10 Cloudy - 11.6 1030.1 0.0
21/08:30am NW 6 7 - - - - 10 Partly cloudy - 10.9 1030.0 0.0
21/08:00am NW 4 5 - - - - 10 Partly cloudy - 10.1 1029.8 0.0
21/07:30am NW 3 5 - - - - 10 Partly cloudy - 9.9 1029.7 0.0
21/07:00am NW 4 5 - - - - 10 Partly cloudy - 10.0 1029.4 0.0
21/06:30am W 4 6 - - - - 10 Cloudy - 10.2 1029.3 0.0
21/06:00am NNW 3 5 - - - - 10 Cloudy - 10.3 1029.3 0.0
21/05:30am NW 6 9 - - - - 10 Cloudy - 10.0 1028.8 0.0
21/05:00am WNW 5 6 - - - - 10 Cloudy - 9.8 1028.9 0.0
21/04:30am NW 1 4 - - - - 10 Cloudy - 10.1 1028.9 0.0
21/04:00am CALM 0 0 - - - - 10 Cloudy - 10.2 1028.7 0.0
21/03:30am NW 4 4 - - - - 10 Cloudy - 10.1 1028.9 0.0
21/03:00am WNW 5 6 - - - - 10 Cloudy - 10.1 1029.0 0.0
21/02:30am W 5 7 - - - - 10 Cloudy - 10.4 1029.0 0.0
21/02:00am WNW 5 6 - - - - 10 Cloudy - 10.3 1029.2 0.0
21/01:30am WNW 5 6 - - - - 10 Partly cloudy - 10.2 1029.1 0.0
21/01:00am WNW 6 7 - - - - 10 Cloudy - 10.1 1029.0 0.0
21/12:30am NW 7 9 - - - - 10 Cloudy - 10.2 1028.9 0.0
21/12:00am NW 7 9 - - - - 10 Cloudy - 10.3 1029.1 0.0
 
Date/Time
EST
Wind Sea
Height
m
Swell Vis
km
Cloud Weather Temp
°C
Press
MSL
hPa
Rain since
9am
mm
Dir  Spd
kts
Gust
kts
Height
m
Period
s
Dir
20/11:30pm WNW 7 8 - - - - 10 Cloudy - 10.3 1029.3 0.0
20/11:00pm NW 7 8 - - - - 10 Cloudy - 10.3 1029.4 0.0
20/10:30pm WNW 6 7 - - - - 10 Partly cloudy - 10.1 1029.4 0.0
20/10:00pm NW 8 9 - - - - 10 Cloudy - 9.8 1029.3 0.0
20/09:30pm NW 6 7 - - - - 10 Partly cloudy - 10.0 1029.4 0.0
20/09:00pm WNW 4 6 - - - - 10 Cloudy - 10.6 1029.3 0.0
20/08:30pm WNW 5 8 - - - - 10 Cloudy - 10.9 1029.0 0.0
20/08:00pm W 6 8 - - - - 10 Cloudy - 11.6 1028.7 0.0
20/07:30pm W 6 7 - - - - 10 Cloudy - 11.9 1028.6 0.0
20/07:00pm W 3 4 - - - - 10 Cloudy - 11.7 1028.4 0.0
20/06:30pm SW 4 4 - - - - 10 Cloudy - 12.4 1028.3 0.0
20/06:00pm SW 3 4 - - - - 10 Cloudy - 12.8 1027.9 0.0
20/05:30pm SSW 4 5 - - - - 10 Cloudy - 13.7 1027.6 0.0
20/05:00pm WSW 5 7 - - - - 10 Cloudy - 14.5 1027.1 0.0
20/04:30pm WSW 7 10 - - - - 10 Cloudy - 15.6 1026.9 0.0
20/04:00pm WSW 7 11 - - - - 10 Cloudy - 16.0 1026.7 0.0
20/03:30pm WSW 5 9 - - - - 10 Cloudy - 15.5 1026.5 0.0
20/03:00pm WSW 7 9 - - - - 10 Mostly cloudy - 15.5 1026.4 0.0
20/02:30pm WSW 7 10 - - - - 10 - - 15.9 1026.4 0.0
20/02:00pm W 8 15 - - - - 10 - - 15.7 1026.4 0.0
20/01:30pm W 9 12 - - - - 10 - - 15.5 1026.4 0.0
20/01:00pm W 8 10 - - - - 10 - - 15.2 1026.5 0.0
20/12:30pm SW 6 9 - - - - 10 - - 14.1 1026.7 0.0
20/12:00pm WSW 8 11 - - - - 10 Partly cloudy - 14.6 1026.9 0.0
20/11:30am WSW 9 11 - - - - 10 Partly cloudy - 14.9 1027.1 0.0
20/11:00am WSW 9 12 - - - - 10 - - 14.2 1027.1 0.0
20/10:30am W 8 11 - - - - 10 - - 13.5 1027.0 0.0
20/10:00am WNW 10 13 - - - - 10 - - 12.6 1026.7 0.0
20/09:30am WNW 10 13 - - - - 10 Partly cloudy - 11.5 1026.6 0.0
20/09:00am WNW 9 11 - - - - 10 Mostly cloudy - 10.8 1026.4 0.6
20/08:30am NW 7 8 - - - - 10 Partly cloudy - 9.1 1026.2 0.6
20/08:00am WNW 4 6 - - - - 10 Partly cloudy - 7.3 1026.0 0.6
20/07:46am WNW 5 6 - - - - 10 - - 7.0 1025.8 0.6
20/07:30am NW 6 7 - - - - 6 - - 6.8 1025.6 0.6
20/07:05am NW 7 8 - - - - 2 Partly cloudy - 6.9 1025.1 0.6
20/07:00am NW 7 8 - - - - 0.8 Partly cloudy - 7.0 1025.1 0.6
20/06:51am NW 7 8 - - - - 0.7 Partly cloudy - 7.1 1025.0 0.6
20/06:46am NW 7 8 - - - - 0.8 Partly cloudy - 6.7 1024.9 0.6
20/06:30am NW 6 8 - - - - 0.3 Partly cloudy - 6.2 1024.7 0.6
20/06:28am NW 6 7 - - - - 0.3 Partly cloudy - 6.2 1024.7 0.6
20/06:00am NW 5 6 - - - - 1 Mostly clear Rain 6.3 1024.5 0.6
20/05:30am NW 5 6 - - - - 4 - - 6.6 1024.3 0.4
20/05:26am NW 5 6 - - - - 5 - - 6.6 1024.2 0.4
20/05:00am W 5 8 - - - - 10 - - 8.5 1023.9 0.4
20/04:30am NW 7 9 - - - - 10 - - 8.8 1023.5 0.4

Other formats

Comma delimited format used in spreadsheet applications
http://www.bom.gov.au/fwo/IDV60701/IDV60701.94912.axf

JavaScript Object Notation format (JSON) in row-major order
http://www.bom.gov.au/fwo/IDV60701/IDV60701.94912.json

Data quality

Most of these data are generated automatically and are frequently updated. Quality checks on data are not normally performed. It is possible for incorrect values to appear. Refer to information at About Latest Weather Observations and please check the disclaimer before using these data.